Time;durP1;ratioP1;P1;durP2;ratioP2;P2;SDS_P1;SDS_P2;PMS_P1;PMS_P2;Temp;Humidity;BMP_temperature;BMP_pressure;BME280_temperature;BME280_humidity;BME280_pressure;Samples;Min_cycle;Max_cycle;Signal;HPM_P1;HPM_P2
2023/03/12 00:02:15;;;;;;;8.18;3.55;;;;;;;1.68;56.17;96269.19;4955439;29;20054;-78
2023/03/12 00:04:44;;;;;;;8.70;3.78;;;;;;;1.53;56.33;96277.31;4956059;29;20463;-78
2023/03/12 00:07:11;;;;;;;11.15;4.35;;;;;;;1.47;57.95;96282.97;4955666;29;20043;-77
2023/03/12 00:09:39;;;;;;;4.40;3.20;;;;;;;1.50;57.98;96281.88;4954843;29;20051;-78
2023/03/12 00:12:07;;;;;;;8.10;3.88;;;;;;;1.53;57.36;96282.44;4955577;29;20055;-78
2023/03/12 00:14:36;;;;;;;5.35;3.78;;;;;;;1.57;58.70;96280.41;4955321;29;20054;-78
2023/03/12 00:17:03;;;;;;;5.65;3.85;;;;;;;1.61;58.76;96286.91;4955230;29;20063;-78
2023/03/12 00:19:31;;;;;;;7.10;3.55;;;;;;;1.57;57.31;96288.09;4955028;28;20051;-78
2023/03/12 00:22:00;;;;;;;7.90;3.50;;;;;;;1.48;57.26;96287.16;4955306;29;20055;-78
2023/03/12 00:24:27;;;;;;;6.63;3.53;;;;;;;1.44;57.33;96283.22;4955729;29;20436;-79
2023/03/12 00:26:55;;;;;;;5.03;3.28;;;;;;;1.40;57.65;96277.53;4954286;28;20499;-78
2023/03/12 00:29:23;;;;;;;6.63;3.60;;;;;;;1.37;57.49;96272.66;4954573;29;20498;-78
2023/03/12 00:31:51;;;;;;;4.55;3.00;;;;;;;1.36;57.60;96272.81;4954949;29;20051;-78
2023/03/12 00:34:18;;;;;;;6.03;3.05;;;;;;;1.31;57.45;96269.81;4955635;29;20082;-78
2023/03/12 00:36:46;;;;;;;5.15;3.28;;;;;;;1.23;57.58;96267.91;4954929;29;20280;-78
2023/03/12 00:39:15;;;;;;;5.20;3.00;;;;;;;1.17;57.56;96276.13;4954426;29;20058;-78
2023/03/12 00:41:42;;;;;;;6.93;3.30;;;;;;;1.12;57.62;96280.88;4955341;29;20086;-78
2023/03/12 00:44:10;;;;;;;7.30;3.17;;;;;;;1.10;57.74;96273.28;4954849;29;20138;-77
2023/03/12 00:46:37;;;;;;;6.78;3.15;;;;;;;1.08;57.90;96280.31;4955185;29;20043;-78
2023/03/12 00:49:05;;;;;;;9.70;3.22;;;;;;;1.00;58.08;96272.44;4954567;29;20051;-78
2023/03/12 00:51:32;;;;;;;6.35;3.83;;;;;;;0.94;58.06;96275.50;4955299;29;20424;-77
2023/03/12 00:54:00;;;;;;;5.97;2.90;;;;;;;0.89;57.98;96281.03;4955133;28;20075;-78
2023/03/12 00:56:29;;;;;;;7.72;3.00;;;;;;;0.86;58.13;96283.06;4954678;29;20133;-78
2023/03/12 00:58:57;;;;;;;4.75;3.30;;;;;;;0.84;57.87;96279.81;4954596;28;20048;-77
2023/03/12 01:01:26;;;;;;;3.63;2.92;;;;;;;0.82;58.07;96279.94;4955248;29;20112;-77
2023/03/12 01:03:54;;;;;;;3.75;2.70;;;;;;;0.82;58.14;96288.44;4955523;29;20055;-78
2023/03/12 01:06:22;;;;;;;7.63;3.42;;;;;;;0.82;58.06;96275.59;4954880;29;20051;-78
2023/03/12 01:08:49;;;;;;;8.85;3.80;;;;;;;0.82;58.07;96282.50;4954445;29;20067;-78
2023/03/12 01:11:19;;;;;;;4.75;2.95;;;;;;;0.80;58.39;96274.13;4954837;29;20061;-78
2023/03/12 01:13:48;;;;;;;6.50;3.30;;;;;;;0.84;59.09;96275.50;4955145;29;20051;-78
2023/03/12 01:16:16;;;;;;;5.70;3.38;;;;;;;0.89;59.92;96268.19;4954655;29;20138;-78
2023/03/12 01:18:43;;;;;;;4.40;3.20;;;;;;;0.99;60.67;96268.25;4953954;29;20043;-78
2023/03/12 01:21:11;;;;;;;5.03;3.03;;;;;;;1.09;60.00;96263.13;4954794;29;20433;-77
2023/03/12 01:23:39;;;;;;;7.55;3.28;;;;;;;1.12;59.18;96261.13;4954963;29;20051;-78
2023/03/12 01:26:06;;;;;;;7.88;3.55;;;;;;;1.10;58.16;96260.44;4954658;29;20051;-78
2023/03/12 01:28:34;;;;;;;4.25;2.83;;;;;;;1.06;58.04;96253.94;4956067;29;20043;-78
2023/03/12 01:31:08;;;;;;;5.00;2.97;;;;;;;1.07;57.71;96265.00;4956311;29;20137;-77
2023/03/12 01:33:35;;;;;;;4.72;2.90;;;;;;;1.05;58.11;96261.75;4954879;29;20062;-78
2023/03/12 01:36:03;;;;;;;4.30;3.05;;;;;;;1.05;58.73;96266.91;4954759;29;20051;-78
2023/03/12 01:38:31;;;;;;;4.53;2.80;;;;;;;1.06;58.41;96271.91;4955595;28;20138;-78
2023/03/12 01:40:58;;;;;;;7.68;3.40;;;;;;;1.09;58.42;96261.38;4958464;29;20146;-78
2023/03/12 01:43:29;;;;;;;7.53;3.28;;;;;;;1.05;57.71;96267.72;4958241;29;20051;-78
2023/03/12 01:46:05;;;;;;;5.28;3.08;;;;;;;1.00;57.15;96269.84;4958156;28;20479;-78
2023/03/12 01:48:39;;;;;;;13.25;5.20;;;;;;;0.93;57.67;96264.44;4956878;29;20099;-78
2023/03/12 01:51:10;;;;;;;18.67;7.47;;;;;;;0.86;58.08;96263.34;4957283;29;20047;-78
2023/03/12 01:53:38;;;;;;;18.40;8.25;;;;;;;0.85;57.96;96266.03;4958491;29;20051;-78
2023/03/12 01:56:07;;;;;;;18.20;7.40;;;;;;;0.87;58.13;96276.97;4958026;29;20062;-78
2023/03/12 01:58:38;;;;;;;12.90;6.07;;;;;;;0.88;58.06;96273.47;4957660;29;20497;-78
2023/03/12 02:01:06;;;;;;;17.13;7.80;;;;;;;0.88;57.82;96271.72;4958712;29;20059;-78
2023/03/12 02:03:35;;;;;;;10.52;5.60;;;;;;;0.93;58.90;96279.03;4963196;29;20075;-77
2023/03/12 02:06:08;;;;;;;9.70;5.65;;;;;;;0.97;58.93;96282.97;4977977;28;20051;-77
2023/03/12 02:08:37;;;;;;;;;;;;;;;1.05;59.21;96283.16;4977480;28;20051;-78
2023/03/12 02:11:04;;;;;;;7.82;3.92;;;;;;;1.11;58.71;96282.59;4977630;29;19956;-78
2023/03/12 02:13:32;;;;;;;10.10;4.28;;;;;;;1.16;58.85;96271.94;4974004;29;20079;-78
2023/03/12 02:16:00;;;;;;;7.22;3.35;;;;;;;1.17;58.82;96276.94;4958051;29;20057;-78
2023/03/12 02:18:28;;;;;;;6.05;3.55;;;;;;;1.17;58.63;96276.94;4957158;29;20047;-78
2023/03/12 02:21:06;;;;;;;5.07;2.78;;;;;;;1.23;58.69;96281.56;4958061;29;20051;-78
2023/03/12 02:23:40;;;;;;;8.23;3.20;;;;;;;1.26;57.66;96277.09;4957070;29;20146;-78
2023/03/12 02:26:11;;;;;;;5.18;2.95;;;;;;;1.22;57.59;96279.94;4957187;29;20102;-78
2023/03/12 02:28:42;;;;;;;5.40;2.83;;;;;;;1.22;57.62;96273.97;4956781;29;20055;-78
2023/03/12 02:31:13;;;;;;;5.90;3.00;;;;;;;1.22;57.90;96279.94;4957663;29;20121;-79
2023/03/12 02:33:41;;;;;;;5.60;3.20;;;;;;;1.21;57.92;96273.16;4957442;29;20062;-78
2023/03/12 02:36:09;;;;;;;7.32;3.03;;;;;;;1.23;57.80;96279.00;4957777;29;20107;-78
2023/03/12 02:38:41;;;;;;;6.50;2.92;;;;;;;1.27;58.37;96276.97;4956324;29;20055;-78
2023/03/12 02:41:14;;;;;;;5.60;2.85;;;;;;;1.34;60.60;96275.50;4957358;29;20055;-78
2023/03/12 02:43:45;;;;;;;4.88;2.80;;;;;;;1.42;58.35;96285.09;4957223;29;20129;-78
2023/03/12 02:46:14;;;;;;;3.40;2.40;;;;;;;1.46;59.67;96271.03;4957204;29;20501;-77
2023/03/12 02:48:42;;;;;;;4.40;2.55;;;;;;;1.50;58.44;96272.41;4956040;28;20078;-78
2023/03/12 02:51:09;;;;;;;4.88;2.28;;;;;;;1.50;59.05;96266.47;4956815;29;20075;-78
2023/03/12 02:53:37;;;;;;;5.20;2.30;;;;;;;1.52;59.52;96270.53;4957145;29;20134;-78
2023/03/12 02:56:06;;;;;;;2.65;2.35;;;;;;;1.57;60.44;96268.34;4957328;29;20057;-78
2023/03/12 02:58:36;;;;;;;3.88;2.55;;;;;;;1.62;59.45;96276.50;4956320;29;20051;-78
2023/03/12 03:01:04;;;;;;;4.43;3.85;;;;;;;1.68;60.75;96269.19;4956987;29;20130;-78
2023/03/12 03:03:31;;;;;;;3.58;2.35;;;;;;;1.75;61.42;96271.09;4956866;29;20142;-78
2023/03/12 03:05:59;;;;;;;5.85;2.70;;;;;;;1.78;60.55;96280.28;4956857;29;20062;-78
2023/03/12 03:08:26;;;;;;;2.78;2.20;;;;;;;1.76;60.05;96283.00;4956347;29;20069;-78
2023/03/12 03:10:54;;;;;;;5.40;2.53;;;;;;;1.74;58.37;96286.66;4956916;28;20051;-78
2023/03/12 03:13:21;;;;;;;7.05;2.47;;;;;;;1.70;58.22;96282.72;4956978;29;20094;-77
2023/03/12 03:15:50;;;;;;;4.93;2.22;;;;;;;1.63;57.29;96288.38;4956831;29;20410;-78
2023/03/12 03:18:18;;;;;;;4.68;2.15;;;;;;;1.59;58.00;96291.38;4955776;29;20089;-78
2023/03/12 03:20:45;;;;;;;3.58;2.30;;;;;;;1.63;59.48;96290.16;4956577;29;20055;-78
2023/03/12 03:23:13;;;;;;;4.40;2.30;;;;;;;1.66;57.69;96282.16;4956693;29;20102;-78
2023/03/12 03:25:40;;;;;;;4.70;2.30;;;;;;;1.61;57.33;96277.41;4956538;29;20078;-78
2023/03/12 03:28:08;;;;;;;6.25;2.83;;;;;;;1.54;57.12;96276.34;4955604;29;20049;-78
2023/03/12 03:30:35;;;;;;;4.20;2.47;;;;;;;1.49;57.36;96270.78;4956549;29;20066;-78
2023/03/12 03:33:05;;;;;;;3.58;2.30;;;;;;;1.49;57.16;96277.66;4956197;29;20399;-78
2023/03/12 03:35:33;;;;;;;3.25;2.22;;;;;;;1.52;58.56;96278.22;4956214;29;20534;-78
2023/03/12 03:38:01;;;;;;;2.95;2.40;;;;;;;1.58;59.93;96272.56;4955249;29;20470;-78
2023/03/12 03:40:29;;;;;;;3.22;2.22;;;;;;;1.58;58.40;96272.56;4956174;29;20051;-78
2023/03/12 03:42:56;;;;;;;5.03;2.05;;;;;;;1.48;57.53;96269.16;4956210;29;20421;-78
2023/03/12 03:45:25;;;;;;;3.38;1.80;;;;;;;1.42;57.41;96269.69;4955944;29;20051;-78
2023/03/12 03:47:53;;;;;;;3.13;1.98;;;;;;;1.35;56.90;96263.47;4955276;29;20086;-78
2023/03/12 03:50:22;;;;;;;4.05;2.50;;;;;;;1.26;57.02;96264.25;4955937;29;20121;-78
2023/03/12 03:52:50;;;;;;;5.10;1.92;;;;;;;1.15;57.37;96258.28;4956064;29;20062;-78
2023/03/12 03:55:17;;;;;;;3.88;1.90;;;;;;;1.10;57.48;96254.50;4955997;29;20055;-78
2023/03/12 03:57:45;;;;;;;3.45;2.13;;;;;;;1.05;57.18;96262.59;4955422;29;20051;-78
2023/03/12 04:00:16;;;;;;;3.72;1.95;;;;;;;1.04;57.24;96271.22;4955458;29;20518;-77
2023/03/12 04:02:44;;;;;;;5.20;1.92;;;;;;;1.03;57.16;96269.63;4955926;29;20051;-78
2023/03/12 04:05:12;;;;;;;4.75;2.63;;;;;;;1.04;56.92;96266.09;4956165;29;20054;-77
2023/03/12 04:07:41;;;;;;;7.85;2.60;;;;;;;1.02;57.13;96262.84;4955525;29;20062;-77
2023/03/12 04:10:10;;;;;;;6.88;3.15;;;;;;;0.97;56.81;96265.00;4954562;29;20138;-78
2023/03/12 04:12:37;;;;;;;4.43;2.17;;;;;;;0.93;56.93;96254.16;4955671;29;20051;-77
2023/03/12 04:15:06;;;;;;;3.63;1.90;;;;;;;0.92;56.65;96257.69;4956478;29;20055;-78
2023/03/12 04:17:34;;;;;;;3.03;1.85;;;;;;;0.89;57.04;96267.38;4956176;29;20051;-78
2023/03/12 04:20:01;;;;;;;2.35;1.98;;;;;;;0.89;56.63;96272.53;4955227;29;20043;-77
2023/03/12 04:22:29;;;;;;;4.60;2.20;;;;;;;0.88;56.63;96273.47;4955675;29;20698;-77
2023/03/12 04:24:58;;;;;;;6.90;2.22;;;;;;;0.87;56.63;96282.13;4955292;29;20051;-78
2023/03/12 04:27:25;;;;;;;6.30;2.65;;;;;;;0.88;56.51;96281.19;5030112;23;20058;-85
2023/03/12 04:29:56;;;;;;;4.43;2.47;;;;;;;0.89;56.42;96280.22;4974389;29;20094;-84
2023/03/12 04:32:28;;;;;;;4.03;2.90;;;;;;;0.93;57.27;96279.84;4975891;29;20050;-85
2023/03/12 04:34:57;;;;;;;6.88;2.80;;;;;;;0.97;56.75;96278.63;4975240;29;20055;-84
2023/03/12 04:37:25;;;;;;;2.90;2.45;;;;;;;0.99;56.89;96281.09;4973973;28;20066;-85
2023/03/12 04:39:55;;;;;;;5.63;2.35;;;;;;;0.97;56.54;96270.94;4972419;28;20051;-83
2023/03/12 04:42:27;;;;;;;5.38;2.58;;;;;;;0.99;56.80;96268.25;4973343;29;20079;-84
2023/03/12 04:44:56;;;;;;;4.07;2.40;;;;;;;1.02;56.28;96270.53;4974795;29;20051;-85
2023/03/12 04:47:26;;;;;;;4.72;2.55;;;;;;;1.00;56.60;96275.00;4974565;28;20051;-85
2023/03/12 04:49:57;;;;;;;5.50;3.03;;;;;;;1.01;56.75;96268.94;4975458;28;20059;-87
2023/03/12 04:52:28;;;;;;;6.05;2.03;;;;;;;1.01;56.39;96251.75;4979219;28;20050;-87
2023/03/12 04:54:58;;;;;;;3.67;2.25;;;;;;;1.00;56.93;96260.38;4978964;28;20078;-85
2023/03/12 04:57:27;;;;;;;6.22;2.50;;;;;;;1.01;56.47;96261.22;4973892;28;20074;-84
2023/03/12 04:59:55;;;;;;;5.65;2.50;;;;;;;0.98;56.34;96256.34;4973424;29;20056;-84
2023/03/12 05:02:26;;;;;;;4.28;2.33;;;;;;;0.96;56.60;96253.06;4973494;29;20057;-84
2023/03/12 05:04:56;;;;;;;4.88;2.08;;;;;;;0.97;56.92;96244.44;4974165;29;20066;-85
2023/03/12 05:07:25;;;;;;;4.85;2.72;;;;;;;0.98;56.58;96253.75;4974435;28;20082;-85
2023/03/12 05:09:53;;;;;;;4.07;2.20;;;;;;;0.98;57.29;96246.91;4973708;29;20055;-84
2023/03/12 05:12:21;;;;;;;4.55;2.17;;;;;;;1.07;57.44;96245.25;4973649;28;20051;-85
2023/03/12 05:14:52;;;;;;;4.20;2.05;;;;;;;1.15;56.84;96253.13;4977476;28;20063;-85
2023/03/12 05:17:19;;;;;;;2.97;2.20;;;;;;;1.20;57.23;96256.16;4976437;28;20079;-84
2023/03/12 05:19:48;;;;;;;6.63;2.38;;;;;;;1.25;57.26;96260.88;4976295;29;20054;-85
2023/03/12 05:22:18;;;;;;;4.65;2.70;;;;;;;1.28;57.96;96265.75;4974896;29;20055;-84
2023/03/12 05:24:46;;;;;;;5.10;2.22;;;;;;;1.33;57.52;96265.34;4974961;29;20063;-85
2023/03/12 05:27:14;;;;;;;5.28;2.53;;;;;;;1.34;56.86;96270.38;4978954;28;20057;-86
2023/03/12 05:29:42;;;;;;;3.38;2.42;;;;;;;1.39;56.56;96267.38;4979729;29;20055;-86
2023/03/12 05:32:14;;;;;;;4.75;2.75;;;;;;;1.41;56.67;96265.50;4980081;29;20062;-84
2023/03/12 05:34:42;;;;;;;2.88;2.20;;;;;;;1.42;56.24;96264.53;4980528;29;20057;-85
2023/03/12 05:37:10;;;;;;;3.55;2.45;;;;;;;1.42;56.24;96254.25;4979543;28;20044;-87
2023/03/12 05:39:39;;;;;;;3.67;2.22;;;;;;;1.46;56.30;96260.75;4979178;28;20058;-86
2023/03/12 05:42:07;;;;;;;2.65;2.10;;;;;;;1.48;55.77;96264.00;4979671;29;20047;-85
2023/03/12 05:44:35;;;;;;;3.83;2.40;;;;;;;1.50;56.70;96263.88;4981247;28;20043;-89
2023/03/12 05:47:03;;;;;;;5.18;3.17;;;;;;;1.52;56.18;96260.22;4981702;28;20061;-88
2023/03/12 05:49:34;;;;;;;4.03;2.30;;;;;;;1.52;56.00;96255.09;4980646;28;20110;-86
2023/03/12 05:52:02;;;;;;;5.30;2.72;;;;;;;1.51;55.72;96262.94;4980475;28;20027;-85
2023/03/12 05:54:33;;;;;;;4.82;2.97;;;;;;;1.48;56.09;96264.00;4979991;29;20070;-87
2023/03/12 05:57:02;;;;;;;3.90;2.70;;;;;;;1.50;56.16;96261.31;4980529;28;20047;-87
2023/03/12 05:59:30;;;;;;;3.53;2.50;;;;;;;1.51;56.13;96258.63;4979203;28;20062;-84
2023/03/12 06:02:00;;;;;;;4.75;2.80;;;;;;;1.51;56.83;96262.94;4980081;29;20043;-83
2023/03/12 06:04:29;;;;;;;3.42;2.42;;;;;;;1.52;56.45;96256.84;4979677;28;20056;-85
2023/03/12 06:06:59;;;;;;;5.57;3.33;;;;;;;1.53;56.29;96264.44;4979850;28;20102;-87
2023/03/12 06:09:27;;;;;;;4.30;2.58;;;;;;;1.52;56.47;96270.53;4979689;29;20051;-86
2023/03/12 06:11:55;;;;;;;9.52;3.08;;;;;;;1.52;56.49;96265.38;4979902;29;20544;-86
2023/03/12 06:14:23;;;;;;;5.07;2.85;;;;;;;1.51;56.70;96261.19;4979877;28;20138;-85
2023/03/12 06:16:52;;;;;;;5.45;3.15;;;;;;;1.52;57.17;96255.09;4979926;28;20074;-85
2023/03/12 06:19:22;;;;;;;3.30;2.60;;;;;;;1.58;57.10;96262.28;4981150;28;20098;-87
2023/03/12 06:21:51;;;;;;;4.65;3.10;;;;;;;1.61;56.86;96262.00;4981857;28;20039;-89
2023/03/12 06:24:25;;;;;;;4.90;3.10;;;;;;;1.65;58.77;96263.34;4980774;28;20043;-86
2023/03/12 06:27:04;;;;;;;6.35;3.25;;;;;;;1.71;57.61;96264.59;4979395;28;20070;-84
2023/03/12 06:29:46;;;;;;;5.95;3.03;;;;;;;1.71;56.79;96256.88;4992685;28;20082;-86
2023/03/12 06:32:19;;;;;;;4.07;2.70;;;;;;;1.71;57.40;96258.66;4995418;28;20047;-83
2023/03/12 06:34:47;;;;;;;4.97;3.13;;;;;;;1.72;57.58;96261.06;4976999;28;20061;-82
2023/03/12 06:37:15;;;;;;;4.28;2.97;;;;;;;1.76;57.46;96267.56;4972783;29;20083;-82
2023/03/12 06:39:50;;;;;;;3.38;2.90;;;;;;;1.78;57.09;96264.88;4978740;29;20074;-83
2023/03/12 06:42:19;;;;;;;8.05;4.95;;;;;;;1.78;57.36;96257.16;4978070;28;20047;-84
2023/03/12 06:44:47;;;;;;;5.57;3.45;;;;;;;1.79;57.55;96258.75;4976135;28;20087;-84
2023/03/12 06:47:29;;;;;;;8.90;3.47;;;;;;;1.78;57.36;96254.56;4977184;28;20058;-85
2023/03/12 06:49:57;;;;;;;6.78;3.92;;;;;;;1.79;57.54;96251.03;4965821;29;20083;-83
2023/03/12 06:52:31;;;;;;;5.60;3.45;;;;;;;1.80;57.48;96253.50;4972766;28;20057;-86
2023/03/12 06:58:12;;;;;;;8.55;4.38;;;;;;;1.89;57.62;96257.00;4958502;28;20039;-86
2023/03/12 07:00:43;;;;;;;6.55;3.90;;;;;;;1.96;57.50;96255.50;4973927;28;20063;-83
2023/03/12 07:08:29;;;;;;;6.85;3.35;;;;;;;2.09;57.78;96262.13;4985848;28;20059;-83
2023/03/12 07:11:02;;;;;;;4.22;2.83;;;;;;;2.12;57.76;96265.25;4987854;28;20126;-83
2023/03/12 07:13:32;;;;;;;6.28;3.38;;;;;;;2.16;59.20;96263.22;4998880;28;20070;-87
2023/03/12 07:16:05;;;;;;;5.85;3.05;;;;;;;2.23;58.57;96269.41;5000349;28;20054;-83
2023/03/12 07:18:33;;;;;;;8.77;3.45;;;;;;;2.29;59.12;96261.16;4999483;28;20490;-85
2023/03/12 07:21:21;;;;;;;6.22;3.17;;;;;;;2.34;59.40;96265.88;5000436;28;20034;-87
2023/03/12 07:23:52;;;;;;;5.57;2.72;;;;;;;2.37;58.51;96261.28;4997539;28;20031;-84
2023/03/12 07:26:21;;;;;;;5.57;3.50;;;;;;;2.39;58.58;96256.81;4991760;28;20070;-81
2023/03/12 07:28:54;;;;;;;5.07;3.17;;;;;;;2.37;58.43;96245.84;4992729;28;20106;-83
2023/03/12 07:31:33;;;;;;;7.70;3.53;;;;;;;2.39;59.23;96254.22;4988324;28;20051;-83
2023/03/12 07:34:04;;;;;;;6.05;3.53;;;;;;;2.42;58.75;96253.94;4985129;28;20497;-82
2023/03/12 07:36:33;;;;;;;5.70;3.58;;;;;;;2.46;58.90;96254.47;4981036;28;20204;-83
2023/03/12 07:39:01;;;;;;;8.07;4.13;;;;;;;2.48;59.13;96262.88;4983630;28;20082;-84
2023/03/12 07:41:31;;;;;;;8.18;4.10;;;;;;;2.52;59.45;96273.72;4980090;28;20075;-82
2023/03/12 07:43:59;;;;;;;4.78;3.72;;;;;;;2.55;59.60;96268.28;4981898;28;20047;-82
2023/03/12 07:46:27;;;;;;;6.05;3.38;;;;;;;2.59;59.58;96265.28;4977585;28;20054;-85
2023/03/12 07:48:55;;;;;;;6.80;4.00;;;;;;;2.68;60.29;96266.22;4977937;28;20058;-83
2023/03/12 07:51:23;;;;;;;9.40;4.38;;;;;;;2.74;60.13;96270.00;4984792;28;20085;-82
2023/03/12 07:53:56;;;;;;;6.47;4.17;;;;;;;2.78;60.44;96248.97;4982577;28;20058;-82
2023/03/12 07:56:23;;;;;;;6.70;4.28;;;;;;;2.83;60.42;96256.25;4982632;28;20383;-81
2023/03/12 07:58:55;;;;;;;6.25;4.65;;;;;;;2.83;60.55;96261.41;4979143;28;20047;-82
2023/03/12 08:01:30;;;;;;;9.15;4.75;;;;;;;2.87;60.84;96262.75;4977809;28;20131;-82
2023/03/12 08:03:59;;;;;;;7.88;5.15;;;;;;;2.91;60.61;96268.41;4979905;28;20046;-83
2023/03/12 08:06:27;;;;;;;6.53;4.65;;;;;;;2.96;61.54;96276.56;4978098;28;20058;-82
2023/03/12 08:08:55;;;;;;;8.20;5.18;;;;;;;3.01;61.44;96276.94;4970751;28;20053;-83
2023/03/12 08:11:32;;;;;;;8.65;4.97;;;;;;;3.03;62.51;96287.91;4962326;28;20051;-83
2023/03/12 08:14:11;;;;;;;8.38;6.18;;;;;;;3.06;62.79;96285.03;4979713;28;20133;-82
2023/03/12 08:16:43;;;;;;;7.93;5.30;;;;;;;3.12;62.64;96287.03;4965422;29;20055;-82
2023/03/12 08:19:14;;;;;;;8.93;6.30;;;;;;;3.16;62.30;96293.53;4962504;29;20055;-82
2023/03/12 08:21:49;;;;;;;8.88;5.68;;;;;;;3.21;63.48;96291.34;4962970;29;20598;-82
2023/03/12 08:24:20;;;;;;;9.23;5.30;;;;;;;3.27;63.13;96293.34;4978823;28;20141;-82
2023/03/12 08:26:49;;;;;;;8.40;5.25;;;;;;;3.29;63.25;96291.44;4982380;28;20051;-82
2023/03/12 08:29:19;;;;;;;11.15;5.38;;;;;;;3.31;64.12;96291.31;4980012;28;20059;-82
2023/03/12 08:31:46;;;;;;;8.02;5.03;;;;;;;3.35;64.40;96291.84;4977532;28;20485;-81
2023/03/12 08:34:31;;;;;;;10.60;6.05;;;;;;;3.40;64.35;96284.47;4976793;28;20528;-82
2023/03/12 08:36:58;;;;;;;5.93;4.57;;;;;;;3.43;65.09;96279.84;4978722;28;20487;-82
2023/03/12 08:39:26;;;;;;;8.15;4.60;;;;;;;3.47;65.42;96270.84;4983445;28;20125;-81
2023/03/12 08:41:54;;;;;;;8.50;5.07;;;;;;;3.53;65.66;96263.50;4995507;28;20078;-82
2023/03/12 08:44:24;;;;;;;7.05;4.95;;;;;;;3.53;66.62;96256.56;4998594;28;20061;-83
2023/03/12 08:46:53;;;;;;;11.07;5.90;;;;;;;3.56;66.71;96258.03;4996277;28;20073;-82
2023/03/12 08:49:28;;;;;;;11.10;6.70;;;;;;;3.56;66.52;96253.69;4982922;28;20051;-84
2023/03/12 08:52:09;;;;;;;11.65;7.80;;;;;;;3.58;66.67;96251.75;4981761;28;20082;-83
2023/03/12 08:54:39;;;;;;;12.15;8.57;;;;;;;3.59;67.03;96260.34;4981674;28;20137;-82
2023/03/12 08:57:14;;;;;;;12.18;8.43;;;;;;;3.61;67.25;96251.50;4984813;28;20109;-83
2023/03/12 08:59:58;;;;;;;12.25;8.80;;;;;;;3.63;69.33;96251.31;4978250;28;20482;-80
2023/03/12 09:02:39;;;;;;;14.10;8.82;;;;;;;3.66;68.11;96258.78;4973045;28;20046;-82
2023/03/12 09:20:52;;;;;;;12.65;7.90;;;;;;;4.03;69.20;96274.09;932221;23;20299;-82
2023/03/12 09:32:09;;;;;;;12.95;8.85;;;;;;;3.98;69.68;96273.75;4940452;29;20048;-84
2023/03/12 09:41:21;;;;;;;15.68;8.40;;;;;;;4.02;71.23;96282.78;4939684;29;20051;-83
2023/03/12 09:44:03;;;;;;;13.93;9.88;;;;;;;4.04;70.42;96283.47;4938681;29;20107;-83
2023/03/12 10:29:20;;;;;;;13.93;9.73;;;;;;;4.27;74.29;96295.91;4974918;23;20059;-79
2023/03/12 10:31:54;;;;;;;17.92;10.55;;;;;;;4.32;75.03;96293.69;4957930;29;20051;-79
2023/03/12 10:34:28;;;;;;;13.25;9.35;;;;;;;4.34;74.67;96290.00;4957848;29;20061;-79
2023/03/12 10:37:00;;;;;;;13.27;9.80;;;;;;;4.37;75.55;96288.88;4957473;29;20055;-79
2023/03/12 10:39:28;;;;;;;16.95;11.23;;;;;;;4.36;75.33;96281.31;4960642;28;20059;-79
2023/03/12 10:41:59;;;;;;;15.70;11.55;;;;;;;4.37;76.26;96288.88;4960934;29;20134;-79
2023/03/12 10:44:29;;;;;;;16.17;10.30;;;;;;;4.38;75.98;96290.50;4958487;29;20059;-80
2023/03/12 10:47:06;;;;;;;14.10;10.40;;;;;;;4.41;76.87;96289.41;4958738;29;20051;-80
2023/03/12 10:49:35;;;;;;;16.27;10.93;;;;;;;4.41;76.17;96310.84;4957571;29;20134;-79
2023/03/12 10:52:06;;;;;;;16.63;11.48;;;;;;;4.43;76.58;96308.94;4958442;29;20047;-79
2023/03/12 10:54:36;;;;;;;17.10;12.15;;;;;;;4.44;76.40;96300.25;4959924;29;20078;-80
2023/03/12 10:57:04;;;;;;;18.42;10.70;;;;;;;4.46;76.29;96302.66;4960294;29;20058;-79
2023/03/12 10:59:35;;;;;;;14.98;11.27;;;;;;;4.48;77.30;96306.75;4964048;29;20047;-79
2023/03/12 11:02:25;;;;;;;16.73;10.70;;;;;;;4.52;77.29;96307.22;4964497;29;20137;-80
2023/03/12 11:04:53;;;;;;;13.77;10.18;;;;;;;4.53;77.13;96304.50;4970953;29;20073;-80
2023/03/12 11:07:27;;;;;;;14.77;10.57;;;;;;;4.58;78.04;96316.16;4967922;28;20110;-80
2023/03/12 11:10:20;;;;;;;15.80;11.23;;;;;;;4.63;79.88;96321.66;4966078;28;20105;-80
2023/03/12 11:12:54;;;;;;;14.30;10.45;;;;;;;4.66;78.78;96323.97;4943593;29;20083;-80
2023/03/12 11:15:26;;;;;;;17.50;9.80;;;;;;;4.69;78.15;96318.50;4943098;29;20051;-80
2023/03/12 11:18:19;;;;;;;14.57;10.15;;;;;;;4.72;79.06;96328.50;4959608;29;20058;-80
2023/03/12 11:20:48;;;;;;;12.97;8.80;;;;;;;4.78;78.01;96327.91;4946370;29;20111;-80
2023/03/12 11:23:19;;;;;;;12.75;8.60;;;;;;;4.83;78.50;96328.28;4940246;29;20305;-80
2023/03/12 11:25:55;;;;;;;13.40;8.23;;;;;;;4.89;79.34;96324.25;4958735;29;20071;-80
2023/03/12 11:28:27;;;;;;;11.68;7.15;;;;;;;4.98;78.41;96322.53;4962594;28;20054;-80
2023/03/12 11:30:58;;;;;;;9.93;5.83;;;;;;;5.07;79.78;96325.03;4968452;29;20055;-80
2023/03/12 11:33:25;;;;;;;10.10;5.72;;;;;;;5.16;79.15;96321.50;4962650;29;20285;-80
2023/03/12 11:36:07;;;;;;;6.85;5.00;;;;;;;5.24;79.29;96325.09;4958692;28;20055;-80
2023/03/12 11:38:41;;;;;;;6.87;4.57;;;;;;;5.33;79.42;96321.56;4949975;28;20511;-80
2023/03/12 11:41:23;;;;;;;6.95;4.78;;;;;;;5.43;80.55;96336.97;4957141;29;20047;-80
2023/03/12 11:44:07;;;;;;;5.15;4.28;;;;;;;5.52;80.14;96323.09;4957284;29;20053;-80
2023/03/12 11:46:50;;;;;;;5.60;4.28;;;;;;;5.60;80.55;96323.13;4959161;28;20075;-80
2023/03/12 11:49:32;;;;;;;5.85;4.97;;;;;;;5.70;81.44;96323.78;4959397;29;20535;-80
2023/03/12 11:52:04;;;;;;;6.30;5.32;;;;;;;5.80;80.94;96333.22;4961066;29;20055;-80
2023/03/12 11:54:58;;;;;;;5.22;4.60;;;;;;;5.86;82.04;96333.38;4955524;29;20062;-80
2023/03/12 11:57:35;;;;;;;5.85;4.40;;;;;;;5.93;81.32;96318.03;4962945;29;20047;-80
2023/03/12 12:00:12;;;;;;;6.13;5.35;;;;;;;6.01;82.42;96322.41;4960084;29;20058;-80
2023/03/12 12:03:07;;;;;;;4.70;3.75;;;;;;;6.07;81.45;96314.81;4950279;29;20050;-80
2023/03/12 12:05:48;;;;;;;6.38;4.75;;;;;;;6.15;80.60;96316.63;4964611;29;20056;-80
2023/03/12 12:08:31;;;;;;;9.18;4.80;;;;;;;6.22;81.15;96316.78;4964586;29;20051;-80
2023/03/12 12:11:05;;;;;;;8.10;5.32;;;;;;;6.30;81.80;96315.00;4966377;29;20047;-80
2023/03/12 12:13:42;;;;;;;5.47;4.18;;;;;;;6.38;82.42;96306.41;4965874;29;20063;-80
2023/03/12 12:16:23;;;;;;;5.30;4.43;;;;;;;6.44;81.13;96305.78;4965733;29;20070;-80
2023/03/12 12:19:01;;;;;;;6.78;4.38;;;;;;;6.49;81.60;96308.66;4968819;29;20106;-81
2023/03/12 12:21:52;;;;;;;5.47;4.97;;;;;;;6.53;82.24;96299.59;4966523;28;20102;-80
2023/03/12 12:24:35;;;;;;;5.22;4.25;;;;;;;6.58;81.25;96302.53;4965437;29;20055;-80
2023/03/12 12:27:14;;;;;;;5.05;4.43;;;;;;;6.64;80.96;96297.66;4964988;29;20051;-80
2023/03/12 12:30:10;;;;;;;7.45;4.28;;;;;;;6.70;81.23;96297.00;4964277;29;20087;-80
2023/03/12 12:32:59;;;;;;;5.32;4.82;;;;;;;6.75;81.94;96303.28;4975578;29;20047;-80
2023/03/12 12:35:35;;;;;;;4.13;3.78;;;;;;;6.81;81.13;96302.63;4975527;29;20135;-80
2023/03/12 12:38:09;;;;;;;4.72;4.22;;;;;;;6.86;81.22;96309.91;4957427;29;20087;-80
2023/03/12 12:40:41;;;;;;;4.90;4.38;;;;;;;6.93;81.64;96303.13;4957057;29;20055;-80
2023/03/12 12:43:26;;;;;;;5.82;3.55;;;;;;;7.01;81.35;96304.88;4961735;28;20512;-80
2023/03/12 12:45:57;;;;;;;7.30;5.10;;;;;;;7.09;81.05;96304.06;4958876;29;20079;-79
2023/03/12 12:48:31;;;;;;;3.88;3.53;;;;;;;7.15;81.29;96303.34;4959314;28;20107;-80
2023/03/12 12:51:03;;;;;;;9.25;4.38;;;;;;;7.22;81.67;96293.94;4959985;29;20059;-80
2023/03/12 12:53:40;;;;;;;4.38;3.78;;;;;;;7.30;81.50;96296.50;4961776;29;20048;-81
2023/03/12 12:56:18;;;;;;;5.60;3.60;;;;;;;7.35;81.52;96270.88;4962997;29;20696;-80
2023/03/12 12:59:02;;;;;;;4.50;3.47;;;;;;;7.45;81.62;96275.84;4961645;29;20059;-80
2023/03/12 13:01:31;;;;;;;4.60;3.22;;;;;;;7.54;80.99;96263.63;4961149;29;20079;-80
2023/03/12 13:04:04;;;;;;;4.22;3.63;;;;;;;7.62;80.99;96279.97;4957445;29;20422;-79
2023/03/12 13:07:02;;;;;;;3.47;2.83;;;;;;;7.71;82.00;96269.53;4957186;29;20192;-80
2023/03/12 13:09:37;;;;;;;5.57;3.22;;;;;;;7.78;81.60;96273.88;4956413;29;20055;-80
2023/03/12 13:12:27;;;;;;;6.97;3.22;;;;;;;7.88;81.33;96280.63;4957549;29;20055;-80
2023/03/12 13:14:57;;;;;;;5.53;2.92;;;;;;;7.91;80.06;96282.88;4964553;28;20491;-80
2023/03/12 13:17:30;;;;;;;5.65;2.65;;;;;;;7.93;80.18;96278.31;4978741;28;20062;-80
2023/03/12 13:20:14;;;;;;;5.97;3.10;;;;;;;7.98;80.86;96276.00;4981615;28;20146;-80
2023/03/12 13:23:03;;;;;;;4.72;3.05;;;;;;;7.99;79.58;96277.63;4976323;28;20057;-80